sensor_id;sensor_type;location;lat;lon;timestamp;temperature;humidity
12233;DHT22;6179;51.748;8.728;2023-05-15T00:05:56;11.10;98.30
12233;DHT22;6179;51.748;8.728;2023-05-15T00:11:57;11.00;98.30
12233;DHT22;6179;51.748;8.728;2023-05-15T00:17:57;10.70;98.30
12233;DHT22;6179;51.748;8.728;2023-05-15T00:23:58;10.50;98.30
12233;DHT22;6179;51.748;8.728;2023-05-15T00:29:59;10.70;98.30
12233;DHT22;6179;51.748;8.728;2023-05-15T00:35:59;10.50;98.30
12233;DHT22;6179;51.748;8.728;2023-05-15T00:42:02;10.40;98.30
12233;DHT22;6179;51.748;8.728;2023-05-15T00:48:03;10.50;98.30
12233;DHT22;6179;51.748;8.728;2023-05-15T00:54:04;10.20;98.30
12233;DHT22;6179;51.748;8.728;2023-05-15T01:00:06;10.20;98.30
12233;DHT22;6179;51.748;8.728;2023-05-15T01:06:09;10.20;98.30
12233;DHT22;6179;51.748;8.728;2023-05-15T01:12:14;10.50;98.30
12233;DHT22;6179;51.748;8.728;2023-05-15T01:18:15;10.40;98.30
12233;DHT22;6179;51.748;8.728;2023-05-15T01:31:03;10.20;98.30
12233;DHT22;6179;51.748;8.728;2023-05-15T01:37:07;10.20;98.30
12233;DHT22;6179;51.748;8.728;2023-05-15T01:43:11;9.90;98.30
12233;DHT22;6179;51.748;8.728;2023-05-15T01:49:17;9.50;98.30
12233;DHT22;6179;51.748;8.728;2023-05-15T01:55:20;9.70;98.30
12233;DHT22;6179;51.748;8.728;2023-05-15T02:01:22;10.00;98.30
12233;DHT22;6179;51.748;8.728;2023-05-15T02:07:25;10.00;98.30
12233;DHT22;6179;51.748;8.728;2023-05-15T02:13:27;9.40;98.30
12233;DHT22;6179;51.748;8.728;2023-05-15T02:19:28;9.20;98.30
12233;DHT22;6179;51.748;8.728;2023-05-15T02:32:16;9.00;98.30
12233;DHT22;6179;51.748;8.728;2023-05-15T02:38:29;9.00;98.30
12233;DHT22;6179;51.748;8.728;2023-05-15T02:44:30;9.10;98.30
12233;DHT22;6179;51.748;8.728;2023-05-15T02:50:33;8.90;98.30
12233;DHT22;6179;51.748;8.728;2023-05-15T02:56:33;9.20;98.30
12233;DHT22;6179;51.748;8.728;2023-05-15T03:02:34;9.00;98.30
12233;DHT22;6179;51.748;8.728;2023-05-15T03:08:35;8.90;98.30
12233;DHT22;6179;51.748;8.728;2023-05-15T03:14:36;9.10;98.30
12233;DHT22;6179;51.748;8.728;2023-05-15T03:20:36;9.30;98.30
12233;DHT22;6179;51.748;8.728;2023-05-15T03:26:37;9.50;98.30
12233;DHT22;6179;51.748;8.728;2023-05-15T03:32:39;9.20;98.30
12233;DHT22;6179;51.748;8.728;2023-05-15T03:38:40;9.00;98.30
12233;DHT22;6179;51.748;8.728;2023-05-15T03:44:43;8.60;98.30
12233;DHT22;6179;51.748;8.728;2023-05-15T03:50:44;8.60;98.30
12233;DHT22;6179;51.748;8.728;2023-05-15T03:56:45;8.80;98.30
12233;DHT22;6179;51.748;8.728;2023-05-15T04:02:45;8.70;98.30
12233;DHT22;6179;51.748;8.728;2023-05-15T04:08:46;8.70;98.30
12233;DHT22;6179;51.748;8.728;2023-05-15T04:14:47;8.70;98.30
12233;DHT22;6179;51.748;8.728;2023-05-15T04:20:47;9.10;98.30
12233;DHT22;6179;51.748;8.728;2023-05-15T04:26:48;9.20;98.30
12233;DHT22;6179;51.748;8.728;2023-05-15T04:32:49;9.20;98.30
12233;DHT22;6179;51.748;8.728;2023-05-15T04:38:51;8.90;98.30
12233;DHT22;6179;51.748;8.728;2023-05-15T04:44:52;9.10;98.30
12233;DHT22;6179;51.748;8.728;2023-05-15T04:50:53;9.30;98.30
12233;DHT22;6179;51.748;8.728;2023-05-15T04:56:53;9.50;98.30
12233;DHT22;6179;51.748;8.728;2023-05-15T05:02:54;9.60;98.30
12233;DHT22;6179;51.748;8.728;2023-05-15T05:08:55;9.70;98.30
12233;DHT22;6179;51.748;8.728;2023-05-15T05:14:55;9.70;98.30
12233;DHT22;6179;51.748;8.728;2023-05-15T05:21:00;10.10;98.30
12233;DHT22;6179;51.748;8.728;2023-05-15T05:27:00;10.30;98.30
12233;DHT22;6179;51.748;8.728;2023-05-15T05:33:01;10.70;98.30
12233;DHT22;6179;51.748;8.728;2023-05-15T05:39:02;10.90;98.30
12233;DHT22;6179;51.748;8.728;2023-05-15T05:45:05;11.20;98.30
12233;DHT22;6179;51.748;8.728;2023-05-15T05:51:06;11.40;98.30
12233;DHT22;6179;51.748;8.728;2023-05-15T05:57:07;11.50;98.30
12233;DHT22;6179;51.748;8.728;2023-05-15T06:03:08;12.10;98.30
12233;DHT22;6179;51.748;8.728;2023-05-15T06:09:09;12.50;98.30
12233;DHT22;6179;51.748;8.728;2023-05-15T06:15:10;13.00;98.30
12233;DHT22;6179;51.748;8.728;2023-05-15T06:21:11;13.20;98.30
12233;DHT22;6179;51.748;8.728;2023-05-15T06:27:11;13.30;98.30
12233;DHT22;6179;51.748;8.728;2023-05-15T06:33:12;13.80;98.30
12233;DHT22;6179;51.748;8.728;2023-05-15T06:39:13;14.30;98.30
12233;DHT22;6179;51.748;8.728;2023-05-15T06:45:13;14.50;96.70
12233;DHT22;6179;51.748;8.728;2023-05-15T06:51:14;14.70;98.00
12233;DHT22;6179;51.748;8.728;2023-05-15T06:57:15;14.60;98.20
12233;DHT22;6179;51.748;8.728;2023-05-15T07:03:15;14.50;96.80
12233;DHT22;6179;51.748;8.728;2023-05-15T07:09:16;14.50;96.40
12233;DHT22;6179;51.748;8.728;2023-05-15T07:15:17;15.00;95.20
12233;DHT22;6179;51.748;8.728;2023-05-15T07:21:18;14.80;96.50
12233;DHT22;6179;51.748;8.728;2023-05-15T07:27:18;15.10;97.20
12233;DHT22;6179;51.748;8.728;2023-05-15T07:33:19;15.10;95.60
12233;DHT22;6179;51.748;8.728;2023-05-15T07:39:20;15.40;96.00
12233;DHT22;6179;51.748;8.728;2023-05-15T07:45:20;15.10;94.80
12233;DHT22;6179;51.748;8.728;2023-05-15T07:51:21;15.20;95.20
12233;DHT22;6179;51.748;8.728;2023-05-15T07:57:22;15.60;94.30
12233;DHT22;6179;51.748;8.728;2023-05-15T08:03:23;15.40;95.60
12233;DHT22;6179;51.748;8.728;2023-05-15T08:09:24;15.80;94.20
12233;DHT22;6179;51.748;8.728;2023-05-15T08:15:24;16.10;92.30
12233;DHT22;6179;51.748;8.728;2023-05-15T08:21:29;16.20;92.60
12233;DHT22;6179;51.748;8.728;2023-05-15T08:27:30;16.40;91.50
12233;DHT22;6179;51.748;8.728;2023-05-15T08:33:30;16.80;91.80
12233;DHT22;6179;51.748;8.728;2023-05-15T08:39:31;16.80;91.30
12233;DHT22;6179;51.748;8.728;2023-05-15T08:45:32;16.70;92.40
12233;DHT22;6179;51.748;8.728;2023-05-15T08:51:33;16.80;92.60
12233;DHT22;6179;51.748;8.728;2023-05-15T08:57:35;17.60;91.90
12233;DHT22;6179;51.748;8.728;2023-05-15T09:03:35;18.30;91.40
12233;DHT22;6179;51.748;8.728;2023-05-15T09:09:36;17.40;89.80
12233;DHT22;6179;51.748;8.728;2023-05-15T09:15:37;17.40;90.90
12233;DHT22;6179;51.748;8.728;2023-05-15T09:21:39;17.80;90.20
12233;DHT22;6179;51.748;8.728;2023-05-15T09:27:41;17.90;90.30
12233;DHT22;6179;51.748;8.728;2023-05-15T09:33:42;18.30;90.70
12233;DHT22;6179;51.748;8.728;2023-05-15T09:39:44;18.30;88.40
12233;DHT22;6179;51.748;8.728;2023-05-15T09:45:46;18.40;86.00
12233;DHT22;6179;51.748;8.728;2023-05-15T09:51:47;18.70;87.70
12233;DHT22;6179;51.748;8.728;2023-05-15T09:58:06;19.10;89.00
12233;DHT22;6179;51.748;8.728;2023-05-15T10:04:08;18.80;87.90
12233;DHT22;6179;51.748;8.728;2023-05-15T10:10:09;18.90;88.50
12233;DHT22;6179;51.748;8.728;2023-05-15T10:16:10;19.00;86.40
12233;DHT22;6179;51.748;8.728;2023-05-15T10:22:12;19.00;84.70
12233;DHT22;6179;51.748;8.728;2023-05-15T10:28:15;18.60;86.50
12233;DHT22;6179;51.748;8.728;2023-05-15T10:34:17;19.50;87.40
12233;DHT22;6179;51.748;8.728;2023-05-15T10:40:19;20.00;86.20
12233;DHT22;6179;51.748;8.728;2023-05-15T10:46:20;20.50;81.80
12233;DHT22;6179;51.748;8.728;2023-05-15T10:52:21;20.20;83.20
12233;DHT22;6179;51.748;8.728;2023-05-15T10:58:23;19.80;84.30
12233;DHT22;6179;51.748;8.728;2023-05-15T11:04:23;19.80;81.40
12233;DHT22;6179;51.748;8.728;2023-05-15T11:22:57;19.40;86.30
12233;DHT22;6179;51.748;8.728;2023-05-15T11:29:17;20.00;83.90
12233;DHT22;6179;51.748;8.728;2023-05-15T11:41:32;18.60;88.70
12233;DHT22;6179;51.748;8.728;2023-05-15T11:47:32;18.30;92.60
12233;DHT22;6179;51.748;8.728;2023-05-15T11:53:33;18.80;89.80
12233;DHT22;6179;51.748;8.728;2023-05-15T11:59:34;19.60;87.20
12233;DHT22;6179;51.748;8.728;2023-05-15T12:05:35;19.40;86.40
12233;DHT22;6179;51.748;8.728;2023-05-15T12:11:36;20.20;88.90
12233;DHT22;6179;51.748;8.728;2023-05-15T12:17:40;20.10;84.00
12233;DHT22;6179;51.748;8.728;2023-05-15T12:23:51;19.70;85.40
12233;DHT22;6179;51.748;8.728;2023-05-15T12:29:55;19.40;84.50
12233;DHT22;6179;51.748;8.728;2023-05-15T12:35:56;19.00;84.10
12233;DHT22;6179;51.748;8.728;2023-05-15T12:41:57;17.80;81.00
12233;DHT22;6179;51.748;8.728;2023-05-15T12:47:58;16.80;82.50
12233;DHT22;6179;51.748;8.728;2023-05-15T12:53:59;16.80;85.60
12233;DHT22;6179;51.748;8.728;2023-05-15T12:59:59;16.80;88.00
12233;DHT22;6179;51.748;8.728;2023-05-15T13:06:01;16.80;85.40
12233;DHT22;6179;51.748;8.728;2023-05-15T13:12:02;16.60;86.80
12233;DHT22;6179;51.748;8.728;2023-05-15T13:24:04;16.20;91.00
12233;DHT22;6179;51.748;8.728;2023-05-15T13:30:06;16.10;91.10
12233;DHT22;6179;51.748;8.728;2023-05-15T13:36:07;16.50;86.60
12233;DHT22;6179;51.748;8.728;2023-05-15T13:42:08;16.60;87.70
12233;DHT22;6179;51.748;8.728;2023-05-15T13:48:08;16.70;87.50
12233;DHT22;6179;51.748;8.728;2023-05-15T13:54:09;16.30;90.80
12233;DHT22;6179;51.748;8.728;2023-05-15T14:00:11;16.00;91.30
12233;DHT22;6179;51.748;8.728;2023-05-15T14:06:12;16.10;93.60
12233;DHT22;6179;51.748;8.728;2023-05-15T14:12:13;17.00;88.70
12233;DHT22;6179;51.748;8.728;2023-05-15T14:18:13;16.80;89.70
12233;DHT22;6179;51.748;8.728;2023-05-15T14:24:14;17.10;86.20
12233;DHT22;6179;51.748;8.728;2023-05-15T14:30:15;17.80;85.00
12233;DHT22;6179;51.748;8.728;2023-05-15T14:36:15;18.50;81.50
12233;DHT22;6179;51.748;8.728;2023-05-15T14:42:17;18.80;80.20
12233;DHT22;6179;51.748;8.728;2023-05-15T14:48:19;18.80;79.50
12233;DHT22;6179;51.748;8.728;2023-05-15T14:54:19;19.20;82.00
12233;DHT22;6179;51.748;8.728;2023-05-15T15:00:20;19.20;77.40
12233;DHT22;6179;51.748;8.728;2023-05-15T15:06:21;18.50;80.60
12233;DHT22;6179;51.748;8.728;2023-05-15T15:12:22;18.10;82.40
12233;DHT22;6179;51.748;8.728;2023-05-15T15:18:22;17.70;85.80
12233;DHT22;6179;51.748;8.728;2023-05-15T15:24:23;17.30;85.60
12233;DHT22;6179;51.748;8.728;2023-05-15T15:30:24;17.80;81.40
12233;DHT22;6179;51.748;8.728;2023-05-15T15:36:25;18.00;85.40
12233;DHT22;6179;51.748;8.728;2023-05-15T15:42:25;18.40;82.90
12233;DHT22;6179;51.748;8.728;2023-05-15T15:48:27;18.60;78.50
12233;DHT22;6179;51.748;8.728;2023-05-15T15:54:27;19.00;78.20
12233;DHT22;6179;51.748;8.728;2023-05-15T16:00:28;19.00;77.80
12233;DHT22;6179;51.748;8.728;2023-05-15T16:06:29;19.00;78.50
12233;DHT22;6179;51.748;8.728;2023-05-15T16:12:29;18.30;81.10
12233;DHT22;6179;51.748;8.728;2023-05-15T16:18:30;18.80;80.40
12233;DHT22;6179;51.748;8.728;2023-05-15T16:24:31;19.00;80.10
12233;DHT22;6179;51.748;8.728;2023-05-15T16:30:32;18.90;79.50
12233;DHT22;6179;51.748;8.728;2023-05-15T16:36:33;18.90;81.90
12233;DHT22;6179;51.748;8.728;2023-05-15T16:42:34;19.00;73.10
12233;DHT22;6179;51.748;8.728;2023-05-15T16:48:35;19.20;77.00
12233;DHT22;6179;51.748;8.728;2023-05-15T16:54:37;19.80;78.30
12233;DHT22;6179;51.748;8.728;2023-05-15T17:00:40;19.60;81.00
12233;DHT22;6179;51.748;8.728;2023-05-15T17:06:41;19.10;82.60
12233;DHT22;6179;51.748;8.728;2023-05-15T17:12:42;18.80;84.00
12233;DHT22;6179;51.748;8.728;2023-05-15T17:18:42;17.80;88.10
12233;DHT22;6179;51.748;8.728;2023-05-15T17:24:43;17.70;87.40
12233;DHT22;6179;51.748;8.728;2023-05-15T17:30:45;17.40;87.90
12233;DHT22;6179;51.748;8.728;2023-05-15T17:36:45;17.20;89.30
12233;DHT22;6179;51.748;8.728;2023-05-15T17:42:46;17.30;91.90
12233;DHT22;6179;51.748;8.728;2023-05-15T17:48:47;17.50;89.50
12233;DHT22;6179;51.748;8.728;2023-05-15T17:54:47;17.70;89.50
12233;DHT22;6179;51.748;8.728;2023-05-15T18:00:50;17.40;90.90
12233;DHT22;6179;51.748;8.728;2023-05-15T18:06:51;17.70;88.60
12233;DHT22;6179;51.748;8.728;2023-05-15T18:12:52;18.10;87.60
12233;DHT22;6179;51.748;8.728;2023-05-15T18:18:52;18.20;86.90
12233;DHT22;6179;51.748;8.728;2023-05-15T18:24:53;18.00;88.10
12233;DHT22;6179;51.748;8.728;2023-05-15T18:30:54;17.90;88.80
12233;DHT22;6179;51.748;8.728;2023-05-15T18:36:54;18.20;88.40
12233;DHT22;6179;51.748;8.728;2023-05-15T18:42:55;17.90;87.60
12233;DHT22;6179;51.748;8.728;2023-05-15T18:48:56;17.70;87.20
12233;DHT22;6179;51.748;8.728;2023-05-15T18:54:56;17.50;87.60
12233;DHT22;6179;51.748;8.728;2023-05-15T19:00:57;17.70;85.80
12233;DHT22;6179;51.748;8.728;2023-05-15T19:06:58;17.30;88.20
12233;DHT22;6179;51.748;8.728;2023-05-15T19:12:58;17.00;90.00
12233;DHT22;6179;51.748;8.728;2023-05-15T19:18:59;16.60;84.70
12233;DHT22;6179;51.748;8.728;2023-05-15T19:24:59;16.30;80.80
12233;DHT22;6179;51.748;8.728;2023-05-15T19:31:00;15.80;80.90
12233;DHT22;6179;51.748;8.728;2023-05-15T19:37:01;16.00;81.90
12233;DHT22;6179;51.748;8.728;2023-05-15T19:43:01;15.10;86.50
12233;DHT22;6179;51.748;8.728;2023-05-15T19:49:02;15.10;87.80
12233;DHT22;6179;51.748;8.728;2023-05-15T19:55:03;14.00;93.40
12233;DHT22;6179;51.748;8.728;2023-05-15T20:01:04;14.00;94.80
12233;DHT22;6179;51.748;8.728;2023-05-15T20:07:04;14.00;95.10
12233;DHT22;6179;51.748;8.728;2023-05-15T20:13:05;13.80;95.70
12233;DHT22;6179;51.748;8.728;2023-05-15T20:19:06;14.00;94.90
12233;DHT22;6179;51.748;8.728;2023-05-15T20:25:07;13.90;94.80
12233;DHT22;6179;51.748;8.728;2023-05-15T20:31:08;13.90;94.00
12233;DHT22;6179;51.748;8.728;2023-05-15T20:37:08;13.80;95.10
12233;DHT22;6179;51.748;8.728;2023-05-15T20:43:09;13.70;95.40
12233;DHT22;6179;51.748;8.728;2023-05-15T20:49:10;13.70;95.40
12233;DHT22;6179;51.748;8.728;2023-05-15T20:55:13;14.00;94.20
12233;DHT22;6179;51.748;8.728;2023-05-15T21:01:18;14.10;93.70
12233;DHT22;6179;51.748;8.728;2023-05-15T21:07:19;13.80;94.40
12233;DHT22;6179;51.748;8.728;2023-05-15T21:13:20;13.60;95.10
12233;DHT22;6179;51.748;8.728;2023-05-15T21:19:21;13.50;95.30
12233;DHT22;6179;51.748;8.728;2023-05-15T21:25:21;13.60;95.40
12233;DHT22;6179;51.748;8.728;2023-05-15T21:31:22;13.20;96.80
12233;DHT22;6179;51.748;8.728;2023-05-15T21:37:23;13.10;97.90
12233;DHT22;6179;51.748;8.728;2023-05-15T21:43:23;13.20;97.70
12233;DHT22;6179;51.748;8.728;2023-05-15T21:49:24;13.00;98.30
12233;DHT22;6179;51.748;8.728;2023-05-15T21:55:24;13.00;98.30
12233;DHT22;6179;51.748;8.728;2023-05-15T22:01:25;13.10;98.30
12233;DHT22;6179;51.748;8.728;2023-05-15T22:07:26;12.90;98.30
12233;DHT22;6179;51.748;8.728;2023-05-15T22:13:26;12.60;98.30
12233;DHT22;6179;51.748;8.728;2023-05-15T22:19:27;12.80;98.30
12233;DHT22;6179;51.748;8.728;2023-05-15T22:25:28;12.60;98.30
12233;DHT22;6179;51.748;8.728;2023-05-15T22:31:29;12.40;98.30
12233;DHT22;6179;51.748;8.728;2023-05-15T22:37:30;12.50;98.30
12233;DHT22;6179;51.748;8.728;2023-05-15T22:43:31;12.30;98.30
12233;DHT22;6179;51.748;8.728;2023-05-15T22:49:32;12.70;98.30
12233;DHT22;6179;51.748;8.728;2023-05-15T22:55:33;12.60;98.30
12233;DHT22;6179;51.748;8.728;2023-05-15T23:01:33;12.70;98.30
12233;DHT22;6179;51.748;8.728;2023-05-15T23:07:34;12.30;98.30
12233;DHT22;6179;51.748;8.728;2023-05-15T23:13:34;12.70;98.30
12233;DHT22;6179;51.748;8.728;2023-05-15T23:19:35;12.30;98.30
12233;DHT22;6179;51.748;8.728;2023-05-15T23:25:37;12.70;98.30
12233;DHT22;6179;51.748;8.728;2023-05-15T23:31:37;12.70;98.30
12233;DHT22;6179;51.748;8.728;2023-05-15T23:37:38;12.90;98.30
12233;DHT22;6179;51.748;8.728;2023-05-15T23:43:39;12.70;98.30
12233;DHT22;6179;51.748;8.728;2023-05-15T23:49:40;12.10;98.30
12233;DHT22;6179;51.748;8.728;2023-05-15T23:55:41;11.90;98.30
